sensor_id;sensor_type;location;lat;lon;timestamp;pressure;altitude;pressure_sealevel;temperature;humidity
56042;BME280;48756;41.374;2.066;2023-05-12T00:01:34;100960.41;;;17.05;55.52
56042;BME280;48756;41.374;2.066;2023-05-12T00:04:00;100958.34;;;17.14;54.91
56042;BME280;48756;41.374;2.066;2023-05-12T00:06:25;100954.59;;;17.22;54.74
56042;BME280;48756;41.374;2.066;2023-05-12T00:08:51;100955.25;;;17.28;55.07
56042;BME280;48756;41.374;2.066;2023-05-12T00:11:17;100955.00;;;17.09;55.74
56042;BME280;48756;41.374;2.066;2023-05-12T00:13:42;100955.38;;;16.97;55.51
56042;BME280;48756;41.374;2.066;2023-05-12T00:16:08;100956.06;;;17.04;55.11
56042;BME280;48756;41.374;2.066;2023-05-12T00:18:34;100957.03;;;16.73;57.36
56042;BME280;48756;41.374;2.066;2023-05-12T00:20:59;100956.41;;;16.93;56.88
56042;BME280;48756;41.374;2.066;2023-05-12T00:23:25;100945.88;;;16.93;57.24
56042;BME280;48756;41.374;2.066;2023-05-12T00:25:50;100946.53;;;16.72;57.81
56042;BME280;48756;41.374;2.066;2023-05-12T00:28:16;100950.19;;;16.68;58.66
56042;BME280;48756;41.374;2.066;2023-05-12T00:30:42;100947.31;;;16.46;59.01
56042;BME280;48756;41.374;2.066;2023-05-12T00:33:07;100951.13;;;16.65;59.39
56042;BME280;48756;41.374;2.066;2023-05-12T00:35:33;100946.97;;;16.86;57.55
56042;BME280;48756;41.374;2.066;2023-05-12T00:37:58;100939.88;;;16.60;59.27
56042;BME280;48756;41.374;2.066;2023-05-12T00:40:24;100939.25;;;16.81;58.67
56042;BME280;48756;41.374;2.066;2023-05-12T00:42:49;100927.25;;;16.71;57.71
56042;BME280;48756;41.374;2.066;2023-05-12T00:45:15;100921.78;;;16.79;58.12
56042;BME280;48756;41.374;2.066;2023-05-12T00:47:40;100922.81;;;16.73;57.41
56042;BME280;48756;41.374;2.066;2023-05-12T00:50:06;100918.88;;;16.29;59.05
56042;BME280;48756;41.374;2.066;2023-05-12T00:52:32;100913.06;;;16.47;57.94
56042;BME280;48756;41.374;2.066;2023-05-12T00:54:58;100912.72;;;16.88;55.77
56042;BME280;48756;41.374;2.066;2023-05-12T00:57:24;100905.78;;;17.11;54.83
56042;BME280;48756;41.374;2.066;2023-05-12T00:59:51;100909.69;;;17.26;53.61
56042;BME280;48756;41.374;2.066;2023-05-12T01:02:17;100911.31;;;17.04;54.83
56042;BME280;48756;41.374;2.066;2023-05-12T01:04:42;100908.41;;;17.11;53.93
56042;BME280;48756;41.374;2.066;2023-05-12T01:07:13;100910.13;;;16.86;54.01
56042;BME280;48756;41.374;2.066;2023-05-12T01:09:40;100907.72;;;16.80;55.01
56042;BME280;48756;41.374;2.066;2023-05-12T01:12:06;100913.25;;;16.71;55.62
56042;BME280;48756;41.374;2.066;2023-05-12T01:14:31;100908.94;;;16.68;55.62
56042;BME280;48756;41.374;2.066;2023-05-12T01:16:58;100912.28;;;16.73;56.81
56042;BME280;48756;41.374;2.066;2023-05-12T01:19:33;100915.56;;;16.52;57.84
56042;BME280;48756;41.374;2.066;2023-05-12T01:22:02;100913.47;;;16.35;58.75
56042;BME280;48756;41.374;2.066;2023-05-12T01:24:28;100911.22;;;16.51;58.64
56042;BME280;48756;41.374;2.066;2023-05-12T01:26:56;100910.84;;;16.35;58.49
56042;BME280;48756;41.374;2.066;2023-05-12T01:29:22;100911.47;;;16.14;59.54
56042;BME280;48756;41.374;2.066;2023-05-12T01:31:48;100914.22;;;16.39;58.87
56042;BME280;48756;41.374;2.066;2023-05-12T01:34:15;100905.56;;;16.63;57.92
56042;BME280;48756;41.374;2.066;2023-05-12T01:36:42;100907.72;;;16.80;56.85
56042;BME280;48756;41.374;2.066;2023-05-12T01:39:08;100893.91;;;17.00;57.95
56042;BME280;48756;41.374;2.066;2023-05-12T01:41:34;100897.34;;;17.02;56.71
56042;BME280;48756;41.374;2.066;2023-05-12T01:44:00;100890.91;;;17.10;56.71
56042;BME280;48756;41.374;2.066;2023-05-12T01:46:25;100892.94;;;17.02;57.27
56042;BME280;48756;41.374;2.066;2023-05-12T01:48:51;100890.19;;;17.05;57.74
56042;BME280;48756;41.374;2.066;2023-05-12T01:51:16;100888.31;;;17.09;56.51
56042;BME280;48756;41.374;2.066;2023-05-12T01:53:42;100891.75;;;17.11;56.60
56042;BME280;48756;41.374;2.066;2023-05-12T01:56:08;100890.72;;;17.15;55.84
56042;BME280;48756;41.374;2.066;2023-05-12T01:58:33;100883.91;;;17.09;56.45
56042;BME280;48756;41.374;2.066;2023-05-12T02:00:59;100882.84;;;17.15;56.92
56042;BME280;48756;41.374;2.066;2023-05-12T02:03:24;100881.72;;;17.22;57.06
56042;BME280;48756;41.374;2.066;2023-05-12T02:05:49;100884.03;;;17.31;56.38
56042;BME280;48756;41.374;2.066;2023-05-12T02:08:15;100883.00;;;17.35;56.29
56042;BME280;48756;41.374;2.066;2023-05-12T02:10:41;100872.47;;;17.35;56.66
56042;BME280;48756;41.374;2.066;2023-05-12T02:13:06;100873.28;;;17.37;57.46
56042;BME280;48756;41.374;2.066;2023-05-12T02:15:31;100880.47;;;17.32;57.61
56042;BME280;48756;41.374;2.066;2023-05-12T02:17:57;100870.47;;;17.17;58.68
56042;BME280;48756;41.374;2.066;2023-05-12T02:20:22;100876.66;;;17.41;58.38
56042;BME280;48756;41.374;2.066;2023-05-12T02:22:48;100876.25;;;17.28;59.21
56042;BME280;48756;41.374;2.066;2023-05-12T02:25:13;100878.59;;;17.36;59.11
56042;BME280;48756;41.374;2.066;2023-05-12T02:27:39;100876.84;;;16.85;58.58
56042;BME280;48756;41.374;2.066;2023-05-12T02:30:05;100870.94;;;16.49;60.12
56042;BME280;48756;41.374;2.066;2023-05-12T02:32:30;100875.59;;;16.95;59.80
56042;BME280;48756;41.374;2.066;2023-05-12T02:34:56;100870.41;;;17.20;58.58
56042;BME280;48756;41.374;2.066;2023-05-12T02:37:22;100871.94;;;17.26;58.64
56042;BME280;48756;41.374;2.066;2023-05-12T02:39:47;100875.50;;;17.25;58.59
56042;BME280;48756;41.374;2.066;2023-05-12T02:42:12;100866.97;;;17.17;58.58
56042;BME280;48756;41.374;2.066;2023-05-12T02:44:38;100872.72;;;17.03;59.68
56042;BME280;48756;41.374;2.066;2023-05-12T02:47:03;100860.09;;;17.12;58.66
56042;BME280;48756;41.374;2.066;2023-05-12T02:49:29;100866.34;;;17.10;59.08
56042;BME280;48756;41.374;2.066;2023-05-12T02:51:54;100869.16;;;16.79;60.21
56042;BME280;48756;41.374;2.066;2023-05-12T02:54:20;100871.84;;;16.77;59.43
56042;BME280;48756;41.374;2.066;2023-05-12T02:56:45;100868.19;;;16.53;60.12
56042;BME280;48756;41.374;2.066;2023-05-12T02:59:11;100866.84;;;16.68;60.49
56042;BME280;48756;41.374;2.066;2023-05-12T03:01:36;100857.13;;;16.97;59.49
56042;BME280;48756;41.374;2.066;2023-05-12T03:04:02;100860.22;;;17.09;58.40
56042;BME280;48756;41.374;2.066;2023-05-12T03:06:31;100855.00;;;17.08;59.38
56042;BME280;48756;41.374;2.066;2023-05-12T03:08:56;100851.22;;;17.15;59.15
56042;BME280;48756;41.374;2.066;2023-05-12T03:11:21;100849.34;;;17.19;59.52
56042;BME280;48756;41.374;2.066;2023-05-12T03:13:47;100844.00;;;17.22;59.32
56042;BME280;48756;41.374;2.066;2023-05-12T03:16:13;100844.00;;;17.22;58.67
56042;BME280;48756;41.374;2.066;2023-05-12T03:18:41;100838.75;;;17.22;58.99
56042;BME280;48756;41.374;2.066;2023-05-12T03:21:07;100847.84;;;16.87;58.94
56042;BME280;48756;41.374;2.066;2023-05-12T03:23:33;100839.09;;;16.58;59.35
56042;BME280;48756;41.374;2.066;2023-05-12T03:25:59;100832.63;;;16.14;60.96
56042;BME280;48756;41.374;2.066;2023-05-12T03:28:25;100836.25;;;15.80;63.14
56042;BME280;48756;41.374;2.066;2023-05-12T03:30:51;100838.72;;;16.14;60.91
56042;BME280;48756;41.374;2.066;2023-05-12T03:33:18;100842.47;;;16.07;61.47
56042;BME280;48756;41.374;2.066;2023-05-12T03:35:43;100829.59;;;15.69;63.67
56042;BME280;48756;41.374;2.066;2023-05-12T03:38:09;100836.31;;;15.46;64.21
56042;BME280;48756;41.374;2.066;2023-05-12T03:40:34;100832.78;;;15.78;63.24
56042;BME280;48756;41.374;2.066;2023-05-12T03:43:00;100828.13;;;15.58;63.59
56042;BME280;48756;41.374;2.066;2023-05-12T03:45:26;100828.06;;;15.91;62.04
56042;BME280;48756;41.374;2.066;2023-05-12T03:47:51;100828.50;;;15.76;62.82
56042;BME280;48756;41.374;2.066;2023-05-12T03:50:17;100830.44;;;15.69;62.76
56042;BME280;48756;41.374;2.066;2023-05-12T03:52:42;100829.84;;;15.58;64.07
56042;BME280;48756;41.374;2.066;2023-05-12T03:55:07;100837.50;;;15.35;64.22
56042;BME280;48756;41.374;2.066;2023-05-12T03:57:33;100831.00;;;15.17;65.81
56042;BME280;48756;41.374;2.066;2023-05-12T04:00:00;100828.94;;;15.28;65.23
56042;BME280;48756;41.374;2.066;2023-05-12T04:02:26;100833.94;;;15.37;65.33
56042;BME280;48756;41.374;2.066;2023-05-12T04:04:51;100832.41;;;15.61;64.14
56042;BME280;48756;41.374;2.066;2023-05-12T04:07:19;100828.22;;;15.23;64.78
56042;BME280;48756;41.374;2.066;2023-05-12T04:09:45;100833.94;;;15.37;64.71
56042;BME280;48756;41.374;2.066;2023-05-12T04:12:11;100830.44;;;15.69;63.41
56042;BME280;48756;41.374;2.066;2023-05-12T04:14:36;100830.63;;;15.63;62.65
56042;BME280;48756;41.374;2.066;2023-05-12T04:17:03;100829.34;;;15.76;62.94
56042;BME280;48756;41.374;2.066;2023-05-12T04:19:28;100829.22;;;15.81;62.25
56042;BME280;48756;41.374;2.066;2023-05-12T04:21:54;100823.88;;;15.84;62.55
56042;BME280;48756;41.374;2.066;2023-05-12T04:24:19;100825.34;;;15.94;62.62
56042;BME280;48756;41.374;2.066;2023-05-12T04:26:45;100824.28;;;16.28;61.73
56042;BME280;48756;41.374;2.066;2023-05-12T04:29:10;100817.31;;;15.99;63.17
56042;BME280;48756;41.374;2.066;2023-05-12T04:31:37;100826.28;;;15.91;63.17
56042;BME280;48756;41.374;2.066;2023-05-12T04:34:02;100820.63;;;15.76;63.48
56042;BME280;48756;41.374;2.066;2023-05-12T04:36:28;100823.91;;;15.51;64.35
56042;BME280;48756;41.374;2.066;2023-05-12T04:38:53;100825.50;;;15.57;64.50
56042;BME280;48756;41.374;2.066;2023-05-12T04:41:19;100816.22;;;15.76;63.96
56042;BME280;48756;41.374;2.066;2023-05-12T04:43:45;100816.72;;;15.89;63.42
56042;BME280;48756;41.374;2.066;2023-05-12T04:46:11;100819.81;;;15.74;63.23
56042;BME280;48756;41.374;2.066;2023-05-12T04:48:36;100820.84;;;15.68;64.06
56042;BME280;48756;41.374;2.066;2023-05-12T04:51:05;100814.19;;;15.86;63.55
56042;BME280;48756;41.374;2.066;2023-05-12T04:53:31;100815.13;;;16.13;63.15
56042;BME280;48756;41.374;2.066;2023-05-12T04:55:58;100817.91;;;16.08;62.25
56042;BME280;48756;41.374;2.066;2023-05-12T04:58:24;100815.59;;;16.26;62.10
56042;BME280;48756;41.374;2.066;2023-05-12T05:00:50;100813.72;;;16.29;61.59
56042;BME280;48756;41.374;2.066;2023-05-12T05:03:15;100820.94;;;16.22;61.65
56042;BME280;48756;41.374;2.066;2023-05-12T05:05:41;100822.25;;;16.09;62.97
56042;BME280;48756;41.374;2.066;2023-05-12T05:08:06;100820.47;;;16.10;63.38
56042;BME280;48756;41.374;2.066;2023-05-12T05:10:32;100820.63;;;16.33;61.95
56042;BME280;48756;41.374;2.066;2023-05-12T05:12:58;100822.75;;;16.20;62.08
56042;BME280;48756;41.374;2.066;2023-05-12T05:15:23;100821.75;;;15.97;62.70
56042;BME280;48756;41.374;2.066;2023-05-12T05:17:49;100826.63;;;15.79;63.48
56042;BME280;48756;41.374;2.066;2023-05-12T05:20:14;100829.00;;;15.88;64.16
56042;BME280;48756;41.374;2.066;2023-05-12T05:22:40;100826.59;;;16.10;62.99
56042;BME280;48756;41.374;2.066;2023-05-12T05:25:05;100824.72;;;16.42;61.68
56042;BME280;48756;41.374;2.066;2023-05-12T05:27:31;100820.38;;;16.41;61.06
56042;BME280;48756;41.374;2.066;2023-05-12T05:29:56;100824.72;;;16.14;62.80
56042;BME280;48756;41.374;2.066;2023-05-12T05:32:22;100827.31;;;16.15;62.70
56042;BME280;48756;41.374;2.066;2023-05-12T05:34:48;100834.34;;;16.15;63.72
56042;BME280;48756;41.374;2.066;2023-05-12T05:37:14;100840.03;;;16.00;64.36
56042;BME280;48756;41.374;2.066;2023-05-12T05:39:39;100844.00;;;16.14;63.94
56042;BME280;48756;41.374;2.066;2023-05-12T05:42:05;100842.50;;;15.76;65.01
56042;BME280;48756;41.374;2.066;2023-05-12T05:44:30;100838.00;;;15.80;65.18
56042;BME280;48756;41.374;2.066;2023-05-12T05:46:56;100842.44;;;15.78;64.73
56042;BME280;48756;41.374;2.066;2023-05-12T05:49:21;100846.50;;;15.89;65.01
56042;BME280;48756;41.374;2.066;2023-05-12T05:51:47;100848.94;;;15.66;65.70
56042;BME280;48756;41.374;2.066;2023-05-12T05:54:12;100836.25;;;15.80;64.96
56042;BME280;48756;41.374;2.066;2023-05-12T05:56:38;100846.94;;;16.04;64.36
56042;BME280;48756;41.374;2.066;2023-05-12T05:59:03;100846.25;;;15.97;64.52
56042;BME280;48756;41.374;2.066;2023-05-12T06:01:29;100839.31;;;15.95;64.15
56042;BME280;48756;41.374;2.066;2023-05-12T06:03:55;100833.56;;;16.11;63.36
56042;BME280;48756;41.374;2.066;2023-05-12T06:06:20;100828.22;;;16.14;63.55
56042;BME280;48756;41.374;2.066;2023-05-12T06:08:46;100837.06;;;16.12;64.28
56042;BME280;48756;41.374;2.066;2023-05-12T06:11:11;100835.66;;;16.28;63.78
56042;BME280;48756;41.374;2.066;2023-05-12T06:13:37;100837.22;;;16.62;62.54
56042;BME280;48756;41.374;2.066;2023-05-12T06:16:02;100836.25;;;16.38;62.69
56042;BME280;48756;41.374;2.066;2023-05-12T06:18:28;100826.28;;;16.47;62.08
56042;BME280;48756;41.374;2.066;2023-05-12T06:20:53;100836.63;;;16.53;62.13
56042;BME280;48756;41.374;2.066;2023-05-12T06:23:19;100834.72;;;16.31;62.66
56042;BME280;48756;41.374;2.066;2023-05-12T06:25:46;100835.78;;;16.51;62.18
56042;BME280;48756;41.374;2.066;2023-05-12T06:28:12;100834.91;;;16.52;62.29
56042;BME280;48756;41.374;2.066;2023-05-12T06:30:38;100842.94;;;16.76;60.84
56042;BME280;48756;41.374;2.066;2023-05-12T06:33:03;100845.97;;;16.62;60.86
56042;BME280;48756;41.374;2.066;2023-05-12T06:35:28;100845.88;;;16.65;60.58
56042;BME280;48756;41.374;2.066;2023-05-12T06:37:54;100845.25;;;16.29;59.06
56042;BME280;48756;41.374;2.066;2023-05-12T06:40:19;100850.09;;;16.15;58.09
56042;BME280;48756;41.374;2.066;2023-05-12T06:42:45;100849.53;;;16.33;57.62
56042;BME280;48756;41.374;2.066;2023-05-12T06:45:11;100854.53;;;15.85;56.39
56042;BME280;48756;41.374;2.066;2023-05-12T06:47:37;100854.34;;;16.47;55.34
56042;BME280;48756;41.374;2.066;2023-05-12T06:50:02;100856.41;;;16.09;54.55
56042;BME280;48756;41.374;2.066;2023-05-12T06:52:28;100859.72;;;16.16;53.42
56042;BME280;48756;41.374;2.066;2023-05-12T06:54:54;100850.88;;;16.18;52.55
56042;BME280;48756;41.374;2.066;2023-05-12T06:57:19;100849.81;;;16.24;52.34
56042;BME280;48756;41.374;2.066;2023-05-12T06:59:45;100851.78;;;16.45;51.63
56042;BME280;48756;41.374;2.066;2023-05-12T07:02:10;100856.31;;;16.40;51.64
56042;BME280;48756;41.374;2.066;2023-05-12T07:04:36;100852.31;;;16.57;50.56
56042;BME280;48756;41.374;2.066;2023-05-12T07:07:01;100849.13;;;16.75;49.87
56042;BME280;48756;41.374;2.066;2023-05-12T07:09:27;100850.56;;;16.28;50.44
56042;BME280;48756;41.374;2.066;2023-05-12T07:11:52;100847.63;;;16.38;50.71
56042;BME280;48756;41.374;2.066;2023-05-12T07:14:18;100844.56;;;16.24;50.55
56042;BME280;48756;41.374;2.066;2023-05-12T07:16:43;100844.72;;;16.74;49.61
56042;BME280;48756;41.374;2.066;2023-05-12T07:19:09;100848.41;;;16.95;49.59
56042;BME280;48756;41.374;2.066;2023-05-12T07:21:35;100853.53;;;16.73;49.70
56042;BME280;48756;41.374;2.066;2023-05-12T07:24:00;100848.00;;;16.82;49.60
56042;BME280;48756;41.374;2.066;2023-05-12T07:26:26;100852.06;;;16.91;49.26
56042;BME280;48756;41.374;2.066;2023-05-12T07:28:53;100841.50;;;16.92;49.43
56042;BME280;48756;41.374;2.066;2023-05-12T07:31:18;100838.75;;;17.22;48.26
56042;BME280;48756;41.374;2.066;2023-05-12T07:33:44;100834.16;;;17.27;48.97
56042;BME280;48756;41.374;2.066;2023-05-12T07:36:10;100834.88;;;17.55;48.48
56042;BME280;48756;41.374;2.066;2023-05-12T07:38:35;100830.50;;;17.06;48.73
56042;BME280;48756;41.374;2.066;2023-05-12T07:41:01;100835.13;;;17.24;48.98
56042;BME280;48756;41.374;2.066;2023-05-12T07:43:26;100833.31;;;17.98;47.95
56042;BME280;48756;41.374;2.066;2023-05-12T07:45:52;100823.19;;;18.09;46.97
56042;BME280;48756;41.374;2.066;2023-05-12T07:48:18;100829.31;;;18.10;47.54
56042;BME280;48756;41.374;2.066;2023-05-12T07:50:44;100827.31;;;17.94;48.31
56042;BME280;48756;41.374;2.066;2023-05-12T07:53:09;100825.16;;;17.57;47.56
56042;BME280;48756;41.374;2.066;2023-05-12T07:55:35;100832.56;;;17.94;46.81
56042;BME280;48756;41.374;2.066;2023-05-12T07:58:00;100822.41;;;18.07;47.53
56042;BME280;48756;41.374;2.066;2023-05-12T08:00:26;100823.53;;;18.67;45.49
56042;BME280;48756;41.374;2.066;2023-05-12T08:02:52;100816.59;;;18.21;47.31
56042;BME280;48756;41.374;2.066;2023-05-12T08:05:18;100825.00;;;17.85;47.65
56042;BME280;48756;41.374;2.066;2023-05-12T08:07:43;100818.78;;;18.53;46.75
56042;BME280;48756;41.374;2.066;2023-05-12T08:10:12;100813.97;;;18.64;45.86
56042;BME280;48756;41.374;2.066;2023-05-12T08:12:38;100815.78;;;18.84;45.05
56042;BME280;48756;41.374;2.066;2023-05-12T08:15:04;100810.41;;;19.47;43.92
56042;BME280;48756;41.374;2.066;2023-05-12T08:17:30;100799.88;;;20.03;44.00
56042;BME280;48756;41.374;2.066;2023-05-12T08:19:55;100794.78;;;19.99;43.54
56042;BME280;48756;41.374;2.066;2023-05-12T08:22:21;100804.41;;;20.37;41.92
56042;BME280;48756;41.374;2.066;2023-05-12T08:24:46;100796.81;;;20.30;42.33
56042;BME280;48756;41.374;2.066;2023-05-12T08:27:12;100797.97;;;20.24;41.69
56042;BME280;48756;41.374;2.066;2023-05-12T08:29:37;100796.91;;;20.09;42.30
56042;BME280;48756;41.374;2.066;2023-05-12T08:32:03;100797.91;;;20.26;41.78
56042;BME280;48756;41.374;2.066;2023-05-12T08:34:29;100800.78;;;21.26;40.74
56042;BME280;48756;41.374;2.066;2023-05-12T08:36:55;100794.75;;;21.73;39.41
56042;BME280;48756;41.374;2.066;2023-05-12T08:39:20;100787.44;;;22.55;38.47
56042;BME280;48756;41.374;2.066;2023-05-12T08:44:21;100799.97;;;20.38;41.50
56042;BME280;48756;41.374;2.066;2023-05-12T08:46:50;100793.81;;;20.37;40.91
56042;BME280;48756;41.374;2.066;2023-05-12T08:49:16;100797.38;;;20.72;41.46
56042;BME280;48756;41.374;2.066;2023-05-12T08:51:45;100789.28;;;20.75;41.41
56042;BME280;48756;41.374;2.066;2023-05-12T08:54:15;100795.97;;;20.65;41.51
56042;BME280;48756;41.374;2.066;2023-05-12T08:56:42;100805.00;;;20.96;40.71
56042;BME280;48756;41.374;2.066;2023-05-12T08:59:09;100794.47;;;21.12;40.37
56042;BME280;48756;41.374;2.066;2023-05-12T09:01:35;100795.41;;;20.76;40.50
56042;BME280;48756;41.374;2.066;2023-05-12T09:04:01;100796.91;;;20.64;40.37
56042;BME280;48756;41.374;2.066;2023-05-12T09:06:26;100797.22;;;19.66;42.50
56042;BME280;48756;41.374;2.066;2023-05-12T09:08:52;100803.38;;;19.07;44.42
56042;BME280;48756;41.374;2.066;2023-05-12T09:11:17;100788.72;;;19.59;42.80
56042;BME280;48756;41.374;2.066;2023-05-12T09:13:47;100789.75;;;20.66;42.34
56042;BME280;48756;41.374;2.066;2023-05-12T09:16:16;100791.22;;;20.89;41.06
56042;BME280;48756;41.374;2.066;2023-05-12T09:18:52;100780.38;;;20.59;41.09
56042;BME280;48756;41.374;2.066;2023-05-12T09:21:18;100786.53;;;20.42;42.11
56042;BME280;48756;41.374;2.066;2023-05-12T09:24:00;100787.34;;;19.50;42.52
56042;BME280;48756;41.374;2.066;2023-05-12T09:26:30;100790.22;;;19.83;42.02
56042;BME280;48756;41.374;2.066;2023-05-12T09:29:03;100789.44;;;19.63;43.18
56042;BME280;48756;41.374;2.066;2023-05-12T09:31:32;100792.72;;;19.86;42.13
56042;BME280;48756;41.374;2.066;2023-05-12T09:33:58;100792.31;;;20.32;42.23
56042;BME280;48756;41.374;2.066;2023-05-12T09:36:23;100792.47;;;20.65;41.44
56042;BME280;48756;41.374;2.066;2023-05-12T09:39:02;100789.03;;;20.97;40.59
56042;BME280;48756;41.374;2.066;2023-05-12T09:41:34;100787.72;;;21.06;40.38
56042;BME280;48756;41.374;2.066;2023-05-12T09:44:00;100786.00;;;20.70;40.32
56042;BME280;48756;41.374;2.066;2023-05-12T09:46:25;100789.91;;;20.63;40.94
56042;BME280;48756;41.374;2.066;2023-05-12T09:48:54;100788.56;;;20.72;42.30
56042;BME280;48756;41.374;2.066;2023-05-12T09:51:19;100792.09;;;20.72;43.67
56042;BME280;48756;41.374;2.066;2023-05-12T09:53:45;100789.97;;;20.96;43.53
56042;BME280;48756;41.374;2.066;2023-05-12T09:56:14;100791.09;;;20.39;46.43
56042;BME280;48756;41.374;2.066;2023-05-12T09:58:41;100798.06;;;20.59;44.90
56042;BME280;48756;41.374;2.066;2023-05-12T10:01:08;100785.59;;;20.25;45.42
56042;BME280;48756;41.374;2.066;2023-05-12T10:03:34;100790.53;;;20.68;45.88
56042;BME280;48756;41.374;2.066;2023-05-12T10:06:01;100792.84;;;20.92;46.00
56042;BME280;48756;41.374;2.066;2023-05-12T10:08:31;100800.94;;;20.54;46.74
56042;BME280;48756;41.374;2.066;2023-05-12T10:10:56;100791.16;;;21.90;44.03
56042;BME280;48756;41.374;2.066;2023-05-12T10:13:23;100787.25;;;21.48;45.00
56042;BME280;48756;41.374;2.066;2023-05-12T10:15:51;100785.34;;;21.99;44.04
56042;BME280;48756;41.374;2.066;2023-05-12T10:18:19;100779.59;;;22.38;42.94
56042;BME280;48756;41.374;2.066;2023-05-12T10:20:45;100786.22;;;22.61;42.47
56042;BME280;48756;41.374;2.066;2023-05-12T10:23:11;100783.22;;;22.67;42.53
56042;BME280;48756;41.374;2.066;2023-05-12T10:25:39;100781.94;;;23.33;40.11
56042;BME280;48756;41.374;2.066;2023-05-12T10:28:05;100779.84;;;22.49;41.67
56042;BME280;48756;41.374;2.066;2023-05-12T10:30:30;100788.06;;;21.66;43.14
56042;BME280;48756;41.374;2.066;2023-05-12T10:32:57;100790.13;;;21.92;43.37
56042;BME280;48756;41.374;2.066;2023-05-12T10:35:33;100790.63;;;21.52;49.84
56042;BME280;48756;41.374;2.066;2023-05-12T10:38:04;100806.94;;;21.27;52.37
56042;BME280;48756;41.374;2.066;2023-05-12T10:40:30;100796.53;;;20.89;53.19
56042;BME280;48756;41.374;2.066;2023-05-12T10:42:56;100799.25;;;20.70;54.29
56042;BME280;48756;41.374;2.066;2023-05-12T10:45:22;100797.91;;;20.26;54.84
56042;BME280;48756;41.374;2.066;2023-05-12T10:47:48;100796.59;;;20.34;53.09
56042;BME280;48756;41.374;2.066;2023-05-12T10:50:13;100798.00;;;20.60;54.95
56042;BME280;48756;41.374;2.066;2023-05-12T10:52:56;100795.19;;;20.63;54.61
56042;BME280;48756;41.374;2.066;2023-05-12T10:55:31;100786.06;;;20.33;56.50
56042;BME280;48756;41.374;2.066;2023-05-12T10:58:09;100786.38;;;20.97;57.04
56042;BME280;48756;41.374;2.066;2023-05-12T11:00:48;100775.88;;;21.46;52.45
56042;BME280;48756;41.374;2.066;2023-05-12T11:03:14;100772.59;;;21.74;52.65
56042;BME280;48756;41.374;2.066;2023-05-12T11:05:42;100772.56;;;22.37;50.55
56042;BME280;48756;41.374;2.066;2023-05-12T11:08:08;100765.03;;;22.45;47.37
56042;BME280;48756;41.374;2.066;2023-05-12T11:10:34;100764.50;;;22.39;46.63
56042;BME280;48756;41.374;2.066;2023-05-12T11:13:01;100757.97;;;22.90;44.75
56042;BME280;48756;41.374;2.066;2023-05-12T11:15:26;100750.41;;;23.41;44.06
56042;BME280;48756;41.374;2.066;2023-05-12T11:17:52;100757.69;;;23.51;43.32
56042;BME280;48756;41.374;2.066;2023-05-12T11:20:22;100760.06;;;23.28;42.37
56042;BME280;48756;41.374;2.066;2023-05-12T11:22:48;100754.63;;;22.56;43.11
56042;BME280;48756;41.374;2.066;2023-05-12T11:25:14;100759.13;;;23.00;43.13
56042;BME280;48756;41.374;2.066;2023-05-12T11:27:44;100753.84;;;22.84;44.47
56042;BME280;48756;41.374;2.066;2023-05-12T11:30:10;100759.81;;;23.18;43.12
56042;BME280;48756;41.374;2.066;2023-05-12T11:32:35;100753.69;;;21.96;43.95
56042;BME280;48756;41.374;2.066;2023-05-12T11:35:08;100752.91;;;22.55;43.12
56042;BME280;48756;41.374;2.066;2023-05-12T11:37:37;100751.69;;;22.61;42.57
56042;BME280;48756;41.374;2.066;2023-05-12T11:40:11;100738.97;;;23.53;41.43
56042;BME280;48756;41.374;2.066;2023-05-12T11:42:37;100742.38;;;24.77;40.13
56042;BME280;48756;41.374;2.066;2023-05-12T11:45:03;100738.06;;;25.01;37.68
56042;BME280;48756;41.374;2.066;2023-05-12T11:47:29;100734.41;;;25.28;37.96
56042;BME280;48756;41.374;2.066;2023-05-12T11:49:54;100734.53;;;25.39;38.24
56042;BME280;48756;41.374;2.066;2023-05-12T11:52:20;100735.81;;;24.16;40.28
56042;BME280;48756;41.374;2.066;2023-05-12T11:54:49;100730.06;;;22.97;42.44
56042;BME280;48756;41.374;2.066;2023-05-12T11:57:25;100733.38;;;21.95;43.73
56042;BME280;48756;41.374;2.066;2023-05-12T11:59:59;100732.59;;;21.13;45.77
56042;BME280;48756;41.374;2.066;2023-05-12T12:02:25;100731.41;;;20.51;46.48
56042;BME280;48756;41.374;2.066;2023-05-12T12:04:51;100721.47;;;21.06;46.22
56042;BME280;48756;41.374;2.066;2023-05-12T12:07:26;100730.81;;;21.13;45.34
56042;BME280;48756;41.374;2.066;2023-05-12T12:09:52;100733.69;;;20.41;48.79
56042;BME280;48756;41.374;2.066;2023-05-12T12:12:17;100734.47;;;21.28;46.04
56042;BME280;48756;41.374;2.066;2023-05-12T12:14:43;100731.69;;;20.96;47.92
56042;BME280;48756;41.374;2.066;2023-05-12T12:17:08;100744.41;;;20.90;48.08
56042;BME280;48756;41.374;2.066;2023-05-12T12:19:34;100741.06;;;20.69;47.78
56042;BME280;48756;41.374;2.066;2023-05-12T12:21:59;100743.81;;;20.67;48.47
56042;BME280;48756;41.374;2.066;2023-05-12T12:24:25;100746.22;;;20.72;47.55
56042;BME280;48756;41.374;2.066;2023-05-12T12:26:50;100746.97;;;20.39;48.08
56042;BME280;48756;41.374;2.066;2023-05-12T12:29:16;100745.81;;;20.45;51.72
56042;BME280;48756;41.374;2.066;2023-05-12T12:31:42;100751.63;;;19.98;52.78
56042;BME280;48756;41.374;2.066;2023-05-12T12:34:07;100758.00;;;19.56;57.17
56042;BME280;48756;41.374;2.066;2023-05-12T12:36:33;100764.72;;;19.82;60.26
56042;BME280;48756;41.374;2.066;2023-05-12T12:38:58;100759.38;;;19.26;61.88
56042;BME280;48756;41.374;2.066;2023-05-12T12:41:24;100760.97;;;19.10;63.37
56042;BME280;48756;41.374;2.066;2023-05-12T12:43:50;100747.09;;;19.25;65.54
56042;BME280;48756;41.374;2.066;2023-05-12T12:46:15;100756.13;;;18.80;66.69
56042;BME280;48756;41.374;2.066;2023-05-12T12:48:41;100758.13;;;18.94;68.61